createdAt,value
2022-10-26T00:01:12.099Z,99.90
2022-10-26T00:03:40.596Z,99.90
2022-10-26T00:06:15.948Z,99.90
2022-10-26T00:08:45.913Z,99.90
2022-10-26T00:11:13.846Z,99.90
2022-10-26T00:13:44.059Z,99.90
2022-10-26T00:16:26.258Z,99.90
2022-10-26T00:18:52.882Z,99.90
2022-10-26T00:21:19.572Z,99.90
2022-10-26T00:23:46.283Z,99.90
2022-10-26T00:26:12.947Z,99.90
2022-10-26T00:28:39.779Z,99.90
2022-10-26T00:31:11.616Z,99.90
2022-10-26T00:33:38.272Z,99.90
2022-10-26T00:36:04.988Z,99.90
2022-10-26T00:38:31.658Z,99.90
2022-10-26T00:43:36.175Z,99.90
2022-10-26T00:46:05.392Z,99.90
2022-10-26T00:48:39.680Z,99.90
2022-10-26T00:51:12.940Z,99.90
2022-10-26T00:53:42.541Z,99.90
2022-10-26T00:56:09.461Z,99.90
2022-10-26T00:58:36.395Z,99.90
2022-10-26T01:01:03.149Z,99.90
2022-10-26T01:03:31.654Z,99.90
2022-10-26T01:05:58.593Z,99.90
2022-10-26T01:08:28.091Z,99.90
2022-10-26T01:10:57.271Z,99.90
2022-10-26T01:13:26.545Z,99.90
2022-10-26T01:16:08.456Z,99.90
2022-10-26T01:18:46.855Z,99.90
2022-10-26T01:21:19.735Z,99.90
2022-10-26T01:24:14.909Z,99.90
2022-10-26T01:27:03.389Z,99.90
2022-10-26T01:30:18.014Z,99.90
2022-10-26T01:33:15.414Z,99.90
2022-10-26T01:35:49.413Z,99.90
2022-10-26T01:38:44.098Z,99.90
2022-10-26T01:41:27.575Z,99.90
2022-10-26T01:43:58.521Z,99.90
2022-10-26T01:46:28.745Z,99.90
2022-10-26T01:49:01.372Z,99.90
2022-10-26T01:51:30.065Z,99.90
2022-10-26T01:54:00.656Z,99.90
2022-10-26T01:56:30.796Z,99.90
2022-10-26T01:59:13.569Z,99.90
2022-10-26T02:01:49.313Z,99.90
2022-10-26T02:04:50.030Z,99.90
2022-10-26T02:07:35.590Z,99.90
2022-10-26T02:10:22.727Z,99.90
2022-10-26T02:13:03.482Z,99.90
2022-10-26T02:15:36.095Z,99.90
2022-10-26T02:18:32.256Z,99.90
2022-10-26T02:21:10.324Z,99.90
2022-10-26T02:23:41.047Z,99.90
2022-10-26T02:26:10.408Z,99.90
2022-10-26T02:28:42.059Z,99.90
2022-10-26T02:31:09.905Z,99.90
2022-10-26T02:33:41.199Z,99.90
2022-10-26T02:36:12.040Z,99.90
2022-10-26T02:38:41.110Z,99.90
2022-10-26T02:41:12.407Z,99.90
2022-10-26T02:43:45.376Z,99.90
2022-10-26T02:46:18.533Z,99.90
2022-10-26T02:48:49.960Z,99.90
2022-10-26T02:51:31.232Z,99.90
2022-10-26T02:54:19.698Z,99.90
2022-10-26T02:56:53.796Z,99.90
2022-10-26T02:59:22.518Z,99.90
2022-10-26T03:01:51.708Z,99.90
2022-10-26T03:04:20.989Z,99.90
2022-10-26T03:06:54.760Z,99.90
2022-10-26T03:09:23.547Z,99.90
2022-10-26T03:11:52.386Z,99.90
2022-10-26T03:14:19.368Z,99.90
2022-10-26T03:16:48.805Z,99.90
2022-10-26T03:19:15.764Z,99.90
2022-10-26T03:21:42.520Z,99.90
2022-10-26T03:24:10.121Z,99.90
2022-10-26T03:26:36.979Z,99.90
2022-10-26T03:29:03.819Z,99.90
2022-10-26T03:31:30.433Z,99.90
2022-10-26T03:33:57.035Z,99.90
2022-10-26T03:36:23.695Z,99.90
2022-10-26T03:38:50.315Z,99.90
2022-10-26T03:41:16.982Z,99.90
2022-10-26T03:43:43.604Z,99.90
2022-10-26T03:46:12.410Z,99.90
2022-10-26T03:48:41.523Z,99.90
2022-10-26T03:51:08.150Z,99.90
2022-10-26T03:53:34.867Z,99.90
2022-10-26T03:56:03.678Z,99.90
2022-10-26T03:58:30.271Z,99.90
2022-10-26T04:00:56.915Z,99.90
2022-10-26T04:03:25.696Z,99.90
2022-10-26T04:05:54.872Z,99.90
2022-10-26T04:08:23.908Z,99.90
2022-10-26T04:10:50.546Z,99.90
2022-10-26T04:13:17.272Z,99.90
2022-10-26T04:15:46.500Z,99.90
2022-10-26T04:18:13.135Z,99.90
2022-10-26T04:20:43.997Z,99.90
2022-10-26T04:23:15.826Z,99.90
2022-10-26T04:25:43.766Z,99.90
2022-10-26T04:28:12.240Z,99.90
2022-10-26T04:30:39.305Z,99.90
2022-10-26T04:33:06.819Z,99.90
2022-10-26T04:35:33.534Z,99.90
2022-10-26T04:38:07.194Z,99.90
2022-10-26T04:40:35.172Z,99.90
2022-10-26T04:43:02.161Z,99.90
2022-10-26T04:45:31.268Z,99.90
2022-10-26T04:48:10.024Z,99.90
2022-10-26T04:50:37.529Z,99.90
2022-10-26T04:53:08.261Z,99.90
2022-10-26T04:55:37.155Z,99.90
2022-10-26T04:58:06.524Z,99.90
2022-10-26T05:00:34.130Z,99.90
2022-10-26T05:03:06.176Z,99.90
2022-10-26T05:05:37.297Z,99.90
2022-10-26T05:08:04.177Z,99.90
2022-10-26T05:10:30.895Z,99.90
2022-10-26T05:13:00.027Z,99.90
2022-10-26T05:15:28.225Z,99.90
2022-10-26T05:18:08.926Z,99.90
2022-10-26T05:20:36.726Z,99.90
2022-10-26T05:23:13.794Z,99.90
2022-10-26T05:25:40.496Z,99.90
2022-10-26T05:28:11.599Z,99.90
2022-10-26T05:30:38.267Z,99.90
2022-10-26T05:33:05.822Z,99.90
2022-10-26T05:35:32.867Z,99.90
2022-10-26T05:38:00.015Z,99.90
2022-10-26T05:40:29.589Z,99.90
2022-10-26T05:43:05.595Z,99.90
2022-10-26T05:45:32.208Z,99.90
2022-10-26T05:48:02.527Z,99.90
2022-10-26T05:50:30.081Z,99.90
2022-10-26T05:52:56.748Z,99.90
2022-10-26T05:55:24.034Z,99.90
2022-10-26T05:57:51.283Z,99.90
2022-10-26T06:00:23.633Z,99.90
2022-10-26T06:03:14.454Z,99.90
2022-10-26T06:05:56.195Z,99.90
2022-10-26T06:08:25.586Z,99.90
2022-10-26T06:10:53.890Z,99.90
2022-10-26T06:13:26.728Z,99.90
2022-10-26T06:16:02.031Z,99.90
2022-10-26T06:18:35.158Z,99.90
2022-10-26T06:21:24.575Z,99.90
2022-10-26T06:23:55.346Z,99.90
2022-10-26T06:26:43.686Z,99.90
2022-10-26T06:29:27.190Z,99.90
2022-10-26T06:31:53.891Z,99.90
2022-10-26T06:34:30.741Z,99.90
2022-10-26T06:37:00.522Z,99.90
2022-10-26T06:39:31.329Z,99.90
2022-10-26T06:42:00.861Z,99.90
2022-10-26T06:44:28.022Z,99.90
2022-10-26T06:47:06.953Z,99.90
2022-10-26T06:49:50.057Z,99.90
2022-10-26T06:52:26.443Z,99.90
2022-10-26T06:54:56.037Z,99.90
2022-10-26T06:57:24.776Z,99.90
2022-10-26T07:00:04.626Z,99.90
2022-10-26T07:02:33.656Z,99.90
2022-10-26T07:05:00.383Z,99.90
2022-10-26T07:07:30.041Z,99.90
2022-10-26T07:09:56.701Z,99.90
2022-10-26T07:12:23.365Z,99.90
2022-10-26T07:14:50.098Z,99.90
2022-10-26T07:17:17.000Z,99.90
2022-10-26T07:19:44.822Z,99.90
2022-10-26T07:22:11.794Z,99.90
2022-10-26T07:24:38.529Z,99.90
2022-10-26T07:27:07.441Z,99.90
2022-10-26T07:29:35.242Z,99.90
2022-10-26T07:32:02.006Z,99.90
2022-10-26T07:34:28.656Z,99.90
2022-10-26T07:36:55.257Z,99.90
2022-10-26T07:39:21.855Z,99.90
2022-10-26T07:41:48.548Z,99.90
2022-10-26T07:44:15.204Z,99.90
2022-10-26T07:46:44.618Z,99.90
2022-10-26T07:49:11.485Z,99.90
2022-10-26T07:51:38.228Z,99.90
2022-10-26T07:54:04.889Z,99.90
2022-10-26T07:56:33.719Z,99.90
2022-10-26T07:59:00.403Z,99.90
2022-10-26T08:01:27.262Z,99.90
2022-10-26T08:03:54.827Z,99.90
2022-10-26T08:06:22.733Z,99.90
2022-10-26T08:08:51.756Z,99.90
2022-10-26T08:11:18.716Z,99.90
2022-10-26T08:13:47.813Z,99.90
2022-10-26T08:16:16.857Z,99.90
2022-10-26T08:18:45.611Z,99.90
2022-10-26T08:21:15.617Z,99.90
2022-10-26T08:23:47.993Z,99.90
2022-10-26T08:26:18.453Z,99.90
2022-10-26T08:28:49.957Z,99.90
2022-10-26T08:31:16.727Z,99.90
2022-10-26T08:33:45.002Z,99.90
2022-10-26T08:36:12.504Z,99.90
2022-10-26T08:38:43.906Z,99.90
2022-10-26T08:41:11.580Z,99.90
2022-10-26T08:43:47.176Z,99.90
2022-10-26T08:46:23.509Z,99.90
2022-10-26T08:48:59.936Z,99.90
2022-10-26T08:51:35.474Z,99.90
2022-10-26T08:54:14.365Z,99.90
2022-10-26T08:56:56.580Z,99.90
2022-10-26T08:59:43.352Z,99.90
2022-10-26T09:02:15.584Z,99.90
2022-10-26T09:04:42.885Z,99.90
2022-10-26T09:07:40.087Z,99.90
2022-10-26T09:10:30.869Z,99.90
2022-10-26T09:13:18.420Z,99.90
2022-10-26T09:16:05.236Z,99.90
2022-10-26T09:18:57.769Z,99.90
2022-10-26T09:21:51.733Z,99.90
2022-10-26T09:24:57.162Z,99.90
2022-10-26T09:27:29.550Z,99.90
2022-10-26T09:30:03.659Z,99.90
2022-10-26T09:32:44.565Z,99.90
2022-10-26T09:35:25.795Z,99.90
2022-10-26T09:38:25.079Z,99.90
2022-10-26T09:41:13.409Z,99.90
2022-10-26T09:44:20.654Z,99.90
2022-10-26T09:47:22.281Z,99.90
2022-10-26T09:50:14.417Z,99.90
2022-10-26T09:52:41.152Z,99.90
2022-10-26T09:55:12.101Z,99.90
2022-10-26T09:57:43.661Z,99.90
2022-10-26T10:00:18.383Z,99.90
2022-10-26T10:02:50.536Z,99.90
2022-10-26T10:05:51.112Z,99.90
2022-10-26T10:08:26.683Z,99.90
2022-10-26T10:11:07.597Z,99.90
2022-10-26T10:13:36.930Z,99.90
2022-10-26T10:16:22.559Z,99.90
2022-10-26T10:18:59.962Z,99.90
2022-10-26T10:21:40.632Z,99.90
2022-10-26T10:24:29.129Z,99.90
2022-10-26T10:27:04.421Z,99.90
2022-10-26T10:29:40.303Z,99.90
2022-10-26T10:32:14.229Z,99.90
2022-10-26T10:34:43.614Z,99.90
2022-10-26T10:37:34.836Z,99.90
2022-10-26T10:40:07.632Z,99.90
2022-10-26T10:42:38.097Z,99.90
2022-10-26T10:45:06.937Z,99.90
2022-10-26T10:47:36.710Z,99.90
2022-10-26T10:50:20.351Z,99.90
2022-10-26T10:52:47.693Z,99.90
2022-10-26T10:55:14.643Z,99.90
2022-10-26T10:57:56.209Z,99.90
2022-10-26T11:00:24.238Z,99.90
2022-10-26T11:02:50.942Z,99.90
2022-10-26T11:05:27.195Z,99.90
2022-10-26T11:08:07.661Z,99.90
2022-10-26T11:10:44.968Z,99.90
2022-10-26T11:13:27.137Z,99.90
2022-10-26T11:16:00.578Z,99.90
2022-10-26T11:18:47.901Z,99.90
2022-10-26T11:21:25.763Z,99.90
2022-10-26T11:24:07.154Z,99.90
2022-10-26T11:26:46.393Z,99.90
2022-10-26T11:29:23.956Z,99.90
2022-10-26T11:31:57.632Z,99.90
2022-10-26T11:34:39.291Z,99.90
2022-10-26T11:37:22.145Z,99.90
2022-10-26T11:40:25.709Z,99.90
2022-10-26T11:43:18.236Z,99.90
2022-10-26T11:45:46.611Z,99.90
2022-10-26T11:48:24.585Z,99.90
2022-10-26T11:50:58.281Z,99.90
2022-10-26T11:53:45.133Z,99.90
2022-10-26T11:56:19.971Z,99.90
2022-10-26T11:58:46.876Z,99.90
2022-10-26T12:01:16.131Z,99.90
2022-10-26T12:03:48.372Z,99.90
2022-10-26T12:06:21.358Z,99.90
2022-10-26T12:08:55.666Z,99.90
2022-10-26T12:11:43.838Z,99.90
2022-10-26T12:14:23.458Z,99.90
2022-10-26T12:17:01.840Z,98.90
2022-10-26T12:20:10.068Z,99.00
2022-10-26T12:22:40.409Z,99.10
2022-10-26T12:25:18.091Z,98.30
2022-10-26T12:27:50.073Z,97.50
2022-10-26T12:30:19.365Z,97.30
2022-10-26T12:32:50.866Z,97.20
2022-10-26T12:35:35.273Z,96.00
2022-10-26T12:38:21.861Z,95.70
2022-10-26T12:40:49.263Z,95.90
2022-10-26T12:43:21.240Z,95.30
2022-10-26T12:46:24.194Z,95.60
2022-10-26T12:48:51.675Z,96.30
2022-10-26T12:51:27.303Z,96.00
2022-10-26T12:54:18.621Z,96.60
2022-10-26T12:56:56.570Z,95.40
2022-10-26T13:00:01.197Z,95.30
2022-10-26T13:02:55.797Z,94.60
2022-10-26T13:05:40.460Z,94.20
2022-10-26T13:08:10.067Z,94.40
2022-10-26T13:10:40.305Z,94.90
2022-10-26T13:13:19.651Z,94.60
2022-10-26T13:15:57.324Z,94.40
2022-10-26T13:18:24.387Z,94.30
2022-10-26T13:21:07.464Z,93.70
2022-10-26T13:23:38.214Z,92.80
2022-10-26T13:26:20.075Z,92.30
2022-10-26T13:28:51.012Z,92.10
2022-10-26T13:31:32.669Z,91.90
2022-10-26T13:34:03.385Z,91.70
2022-10-26T13:36:32.238Z,91.90
2022-10-26T13:39:05.236Z,91.20
2022-10-26T13:41:38.612Z,90.90
2022-10-26T13:44:20.425Z,91.00
2022-10-26T13:46:58.048Z,90.60
2022-10-26T13:49:39.006Z,90.80
2022-10-26T13:52:13.918Z,90.60
2022-10-26T13:54:57.048Z,92.00
2022-10-26T13:57:33.972Z,92.40
2022-10-26T14:00:08.044Z,92.30
2022-10-26T14:02:36.932Z,91.60
2022-10-26T14:05:05.815Z,91.30
2022-10-26T14:07:57.341Z,90.80
2022-10-26T14:10:34.600Z,91.50
2022-10-26T14:13:06.607Z,91.00
2022-10-26T14:15:34.581Z,90.90
2022-10-26T14:18:02.959Z,91.10
2022-10-26T14:20:33.818Z,90.70
2022-10-26T14:23:00.511Z,91.20
2022-10-26T14:25:42.162Z,90.60
2022-10-26T14:28:45.931Z,90.80
2022-10-26T14:31:29.155Z,90.60
2022-10-26T14:33:57.537Z,90.40
2022-10-26T14:36:38.692Z,90.60
2022-10-26T14:39:09.468Z,90.70
2022-10-26T14:41:40.914Z,91.20
2022-10-26T14:44:18.529Z,91.70
2022-10-26T14:46:45.515Z,92.40
2022-10-26T14:49:27.075Z,92.80
2022-10-26T14:52:05.119Z,94.10
2022-10-26T14:54:33.708Z,95.00
2022-10-26T14:57:08.585Z,96.20
2022-10-26T14:59:35.309Z,97.10
2022-10-26T15:02:11.153Z,97.30
2022-10-26T15:04:40.864Z,97.10
2022-10-26T15:07:08.627Z,96.80
2022-10-26T15:09:48.686Z,97.20
2022-10-26T15:12:27.151Z,97.50
2022-10-26T15:14:57.390Z,98.20
2022-10-26T15:17:39.882Z,98.70
2022-10-26T15:20:14.268Z,99.60
2022-10-26T15:22:43.399Z,99.90
2022-10-26T15:25:23.421Z,99.90
2022-10-26T15:27:53.679Z,99.90
2022-10-26T15:30:25.772Z,99.90
2022-10-26T15:32:54.117Z,99.90
2022-10-26T15:35:28.255Z,99.90
2022-10-26T15:37:56.767Z,99.90
2022-10-26T15:43:03.509Z,99.90
2022-10-26T15:45:34.828Z,99.90
2022-10-26T15:48:29.990Z,99.90
2022-10-26T15:50:56.963Z,99.90
2022-10-26T15:53:28.822Z,99.90
2022-10-26T15:56:01.758Z,99.90
2022-10-26T15:58:31.194Z,99.90
2022-10-26T16:00:58.125Z,99.90
2022-10-26T16:03:26.748Z,99.90
2022-10-26T16:06:05.305Z,99.90
2022-10-26T16:08:34.187Z,99.90
2022-10-26T16:11:00.830Z,99.90
2022-10-26T16:13:30.625Z,99.90
2022-10-26T16:15:57.505Z,99.90
2022-10-26T16:18:24.244Z,99.90
2022-10-26T16:20:50.933Z,99.90
2022-10-26T16:23:19.755Z,99.90
2022-10-26T16:25:46.998Z,99.90
2022-10-26T16:28:16.509Z,99.90
2022-10-26T16:30:44.138Z,99.90
2022-10-26T16:33:11.107Z,99.90
2022-10-26T16:35:37.868Z,99.90
2022-10-26T16:38:04.576Z,99.90
2022-10-26T16:40:31.265Z,99.90
2022-10-26T16:42:57.983Z,99.90
2022-10-26T16:45:24.675Z,99.90
2022-10-26T16:47:51.579Z,99.90
2022-10-26T16:50:21.161Z,99.90
2022-10-26T16:52:50.250Z,99.90
2022-10-26T16:55:24.394Z,99.90
2022-10-26T16:57:51.460Z,99.90
2022-10-26T17:00:18.558Z,99.90
2022-10-26T17:02:45.308Z,99.90
2022-10-26T17:05:16.972Z,99.90
2022-10-26T17:07:43.620Z,99.90
2022-10-26T17:10:15.033Z,99.90
2022-10-26T17:12:41.759Z,99.90
2022-10-26T17:15:08.922Z,99.90
2022-10-26T17:17:35.567Z,99.90
2022-10-26T17:20:07.834Z,99.90
2022-10-26T17:22:34.534Z,99.90
2022-10-26T17:25:01.172Z,99.90
2022-10-26T17:27:28.165Z,99.90
2022-10-26T17:29:57.113Z,99.90
2022-10-26T17:32:23.759Z,99.90
2022-10-26T17:34:52.804Z,99.90
2022-10-26T17:37:19.626Z,99.90
2022-10-26T17:39:46.384Z,99.90
2022-10-26T17:42:13.063Z,99.90
2022-10-26T17:44:42.311Z,99.90
2022-10-26T17:47:09.766Z,99.90
2022-10-26T17:49:39.435Z,99.90
2022-10-26T17:52:06.231Z,99.90
2022-10-26T17:54:33.181Z,99.90
2022-10-26T17:57:00.664Z,99.90
2022-10-26T17:59:27.743Z,99.90
2022-10-26T18:01:54.441Z,99.90
2022-10-26T18:04:23.286Z,99.90
2022-10-26T18:06:50.051Z,99.90
2022-10-26T18:09:16.759Z,99.90
2022-10-26T18:11:45.859Z,99.90
2022-10-26T18:14:14.741Z,99.90
2022-10-26T18:16:41.413Z,99.90
2022-10-26T18:19:11.006Z,99.90
2022-10-26T18:21:37.946Z,99.90
2022-10-26T18:24:08.069Z,99.90
2022-10-26T18:26:37.015Z,99.90
2022-10-26T18:29:05.591Z,99.90
2022-10-26T18:31:34.758Z,99.90
2022-10-26T18:34:05.404Z,99.90
2022-10-26T18:36:32.559Z,99.90
2022-10-26T18:38:59.541Z,99.90
2022-10-26T18:41:27.246Z,99.90
2022-10-26T18:43:58.614Z,99.90
2022-10-26T18:46:30.059Z,99.90
2022-10-26T18:48:58.621Z,99.90
2022-10-26T18:51:30.435Z,99.90
2022-10-26T18:54:00.354Z,99.90
2022-10-26T18:56:27.408Z,99.90
2022-10-26T18:59:02.478Z,99.90
2022-10-26T19:01:34.968Z,99.90
2022-10-26T19:04:04.392Z,99.90
2022-10-26T19:06:35.902Z,99.90
2022-10-26T19:09:03.011Z,99.90
2022-10-26T19:11:31.261Z,99.90
2022-10-26T19:14:00.761Z,99.90
2022-10-26T19:16:45.394Z,99.90
2022-10-26T19:19:14.211Z,99.90
2022-10-26T19:21:44.359Z,99.90
2022-10-26T19:24:14.095Z,99.90
2022-10-26T19:26:43.741Z,99.90
2022-10-26T19:29:18.280Z,99.90
2022-10-26T19:31:46.097Z,99.90
2022-10-26T19:34:14.506Z,99.90
2022-10-26T19:36:44.807Z,99.90
2022-10-26T19:39:16.259Z,99.90
2022-10-26T19:41:44.147Z,99.90
2022-10-26T19:44:12.293Z,99.90
2022-10-26T19:46:39.465Z,99.90
2022-10-26T19:49:12.371Z,99.90
2022-10-26T19:51:41.216Z,99.90
2022-10-26T19:54:08.094Z,99.90
2022-10-26T19:56:36.356Z,99.90
2022-10-26T19:59:04.051Z,99.90
2022-10-26T20:01:31.144Z,99.90
2022-10-26T20:03:57.894Z,99.90
2022-10-26T20:06:24.600Z,99.90
2022-10-26T20:08:51.403Z,99.90
2022-10-26T20:11:18.576Z,99.90
2022-10-26T20:13:46.768Z,99.90
2022-10-26T20:16:14.620Z,99.90
2022-10-26T20:18:44.391Z,99.90
2022-10-26T20:21:16.317Z,99.90
2022-10-26T20:23:43.398Z,99.90
2022-10-26T20:26:17.985Z,99.90
2022-10-26T20:28:50.921Z,99.90
2022-10-26T20:31:17.777Z,99.90
2022-10-26T20:33:48.680Z,99.90
2022-10-26T20:36:15.340Z,99.90
2022-10-26T20:38:42.132Z,99.90
2022-10-26T20:41:12.250Z,99.90
2022-10-26T20:43:40.352Z,99.90
2022-10-26T20:46:30.778Z,99.90
2022-10-26T20:48:57.614Z,99.90
2022-10-26T20:52:02.675Z,99.90
2022-10-26T20:54:45.701Z,99.90
2022-10-26T20:57:21.523Z,99.90
2022-10-26T20:59:53.985Z,99.90
2022-10-26T21:02:27.741Z,99.90
2022-10-26T21:04:58.903Z,99.90
2022-10-26T21:07:27.742Z,99.90
2022-10-26T21:09:54.461Z,99.90
2022-10-26T21:12:21.067Z,99.90
2022-10-26T21:14:47.682Z,99.90
2022-10-26T21:17:14.438Z,99.90
2022-10-26T21:19:41.774Z,99.90
2022-10-26T21:22:08.490Z,99.90
2022-10-26T21:27:11.372Z,99.90
2022-10-26T21:29:37.968Z,99.90
2022-10-26T21:32:05.036Z,99.90
2022-10-26T21:34:33.923Z,99.90
2022-10-26T21:37:00.539Z,99.90
2022-10-26T21:39:29.397Z,99.90
2022-10-26T21:41:55.983Z,99.90
2022-10-26T21:44:38.678Z,99.90
2022-10-26T21:47:07.461Z,99.90
2022-10-26T21:49:34.109Z,99.90
2022-10-26T21:52:00.728Z,99.90
2022-10-26T21:54:27.576Z,99.90
2022-10-26T21:56:56.739Z,99.90
2022-10-26T21:59:23.487Z,99.90
2022-10-26T22:01:50.214Z,99.90
2022-10-26T22:04:19.184Z,99.90
2022-10-26T22:06:48.046Z,99.90
2022-10-26T22:09:14.716Z,99.90
2022-10-26T22:11:41.337Z,99.90
2022-10-26T22:14:07.995Z,99.90
2022-10-26T22:16:34.942Z,99.90
2022-10-26T22:19:07.300Z,99.90
2022-10-26T22:21:39.657Z,99.90
2022-10-26T22:24:06.833Z,99.90
2022-10-26T22:26:35.902Z,99.90
2022-10-26T22:29:03.671Z,99.90
2022-10-26T22:31:33.033Z,99.90
2022-10-26T22:34:06.442Z,99.90
2022-10-26T22:36:34.946Z,99.90
2022-10-26T22:39:01.836Z,99.90
2022-10-26T22:41:28.591Z,99.90
2022-10-26T22:43:55.287Z,99.90
2022-10-26T22:46:23.876Z,99.90
2022-10-26T22:48:55.197Z,99.90
2022-10-26T22:51:23.953Z,99.90
2022-10-26T22:54:00.427Z,99.90
2022-10-26T22:56:28.077Z,99.90
2022-10-26T22:58:55.205Z,99.90
2022-10-26T23:01:26.682Z,99.90
2022-10-26T23:03:56.509Z,99.90
2022-10-26T23:06:25.334Z,99.90
2022-10-26T23:08:56.888Z,99.90
2022-10-26T23:11:25.266Z,99.90
2022-10-26T23:13:57.163Z,99.90
2022-10-26T23:16:27.629Z,99.90
2022-10-26T23:18:54.902Z,99.90
2022-10-26T23:21:23.400Z,99.90
2022-10-26T23:23:50.190Z,99.90
2022-10-26T23:26:18.838Z,99.90
2022-10-26T23:28:45.783Z,99.90
2022-10-26T23:31:21.623Z,99.90
2022-10-26T23:33:53.200Z,99.90
2022-10-26T23:36:20.058Z,99.90
2022-10-26T23:38:47.686Z,99.90
2022-10-26T23:41:14.824Z,99.90
2022-10-26T23:43:41.978Z,99.90
2022-10-26T23:46:08.892Z,99.90
2022-10-26T23:48:35.530Z,99.90
2022-10-26T23:51:04.660Z,99.90
2022-10-26T23:53:31.646Z,99.90
2022-10-26T23:55:58.303Z,99.90
2022-10-26T23:58:24.960Z,99.90
